createdAt,value
2023-08-30T00:00:02.446Z,100808.22
2023-08-30T00:01:38.471Z,100808.25
2023-08-30T00:03:10.399Z,100808.44
2023-08-30T00:04:43.212Z,100808.53
2023-08-30T00:06:14.978Z,100806.91
2023-08-30T00:07:46.772Z,100810.50
2023-08-30T00:09:18.787Z,100802.63
2023-08-30T00:10:50.646Z,100807.78
2023-08-30T00:12:23.067Z,100806.78
2023-08-30T00:13:54.887Z,100805.06
2023-08-30T00:15:26.743Z,100804.06
2023-08-30T00:16:58.506Z,100795.28
2023-08-30T00:18:30.431Z,100792.63
2023-08-30T00:20:02.375Z,100792.66
2023-08-30T00:21:34.175Z,100786.44
2023-08-30T00:23:06.177Z,100787.19
2023-08-30T00:24:37.998Z,100781.00
2023-08-30T00:26:09.831Z,100780.94
2023-08-30T00:27:41.622Z,100782.00
2023-08-30T00:29:13.444Z,100783.81
2023-08-30T00:30:45.491Z,100773.16
2023-08-30T00:32:17.310Z,100774.13
2023-08-30T00:33:52.650Z,100773.25
2023-08-30T00:35:24.430Z,100789.06
2023-08-30T00:36:56.253Z,100782.22
2023-08-30T00:38:28.479Z,100777.81
2023-08-30T00:40:01.286Z,100781.25
2023-08-30T00:41:33.203Z,100781.16
2023-08-30T00:43:04.973Z,100784.81
2023-08-30T00:44:36.785Z,100790.88
2023-08-30T00:46:08.562Z,100778.50
2023-08-30T00:47:40.351Z,100777.72
2023-08-30T00:49:12.159Z,100781.34
2023-08-30T00:50:43.957Z,100784.84
2023-08-30T00:52:16.970Z,100784.81
2023-08-30T00:53:49.312Z,100774.16
2023-08-30T00:55:21.137Z,100779.53
2023-08-30T00:56:53.707Z,100775.06
2023-08-30T00:58:27.878Z,100773.25
2023-08-30T00:59:59.685Z,100769.75
2023-08-30T01:01:31.439Z,100771.53
2023-08-30T01:03:03.296Z,100768.06
2023-08-30T01:04:35.123Z,100768.97
2023-08-30T01:06:06.924Z,100760.34
2023-08-30T01:07:38.706Z,100765.53
2023-08-30T01:09:11.028Z,100773.44
2023-08-30T01:10:46.128Z,100767.38
2023-08-30T01:12:18.906Z,100767.38
2023-08-30T01:13:56.564Z,100768.28
2023-08-30T01:15:28.292Z,100762.03
2023-08-30T01:17:00.072Z,100754.06
2023-08-30T01:18:34.275Z,100754.00
2023-08-30T01:20:09.573Z,100759.19
2023-08-30T01:21:51.874Z,100751.22
2023-08-30T01:23:23.730Z,100753.81
2023-08-30T01:25:22.534Z,100755.53
2023-08-30T01:27:20.567Z,100746.63
2023-08-30T01:28:52.769Z,100744.09
2023-08-30T01:30:24.532Z,100744.25
2023-08-30T01:31:57.005Z,100742.66
2023-08-30T01:33:29.860Z,100748.84
2023-08-30T01:35:01.854Z,100752.25
2023-08-30T01:36:33.662Z,100753.13
2023-08-30T01:38:07.469Z,100753.16
2023-08-30T01:39:39.787Z,100747.84
2023-08-30T01:41:12.920Z,100753.94
2023-08-30T01:42:46.009Z,100746.81
2023-08-30T01:44:18.150Z,100739.72
2023-08-30T01:45:49.975Z,100745.13
2023-08-30T01:47:21.765Z,100747.84
2023-08-30T01:48:54.807Z,100744.25
2023-08-30T01:50:26.602Z,100746.91
2023-08-30T01:51:58.384Z,100747.03
2023-08-30T01:53:31.274Z,100747.00
2023-08-30T01:55:03.825Z,100740.13
2023-08-30T01:56:36.508Z,100740.09
2023-08-30T01:58:08.824Z,100744.53
2023-08-30T01:59:41.000Z,100744.63
2023-08-30T02:01:13.390Z,100739.56
2023-08-30T02:02:45.317Z,100745.88
2023-08-30T02:04:17.165Z,100749.53
2023-08-30T02:05:50.054Z,100741.63
2023-08-30T02:07:23.609Z,100744.28
2023-08-30T02:09:00.337Z,100739.78
2023-08-30T02:10:42.536Z,100745.69
2023-08-30T02:12:14.937Z,100745.63
2023-08-30T02:13:46.683Z,100744.00
2023-08-30T02:15:18.990Z,100741.25
2023-08-30T02:16:50.758Z,100734.91
2023-08-30T02:18:22.561Z,100736.72
2023-08-30T02:19:57.969Z,100739.22
2023-08-30T02:21:29.974Z,100736.72
2023-08-30T02:23:11.692Z,100730.56
2023-08-30T02:24:46.270Z,100732.25
2023-08-30T02:26:19.644Z,100741.81
2023-08-30T02:27:52.777Z,100736.53
2023-08-30T02:29:25.232Z,100736.53
2023-08-30T02:30:57.025Z,100728.59
2023-08-30T02:32:28.913Z,100727.63
2023-08-30T02:34:00.718Z,100724.94
2023-08-30T02:35:32.511Z,100722.31
2023-08-30T02:37:04.312Z,100725.72
2023-08-30T02:38:36.046Z,100722.19
2023-08-30T02:40:08.129Z,100716.91
2023-08-30T02:41:41.549Z,100719.59
2023-08-30T02:43:13.446Z,100717.00
2023-08-30T02:44:45.224Z,100717.09
2023-08-30T02:46:17.021Z,100718.81
2023-08-30T02:47:50.581Z,100714.41
2023-08-30T02:49:22.380Z,100707.38
2023-08-30T02:50:54.142Z,100711.72
2023-08-30T02:52:25.917Z,100710.34
2023-08-30T02:53:57.735Z,100709.63
2023-08-30T02:55:29.519Z,100710.53
2023-08-30T02:57:01.398Z,100714.03
2023-08-30T02:58:34.548Z,100707.81
2023-08-30T03:00:07.426Z,100706.00
2023-08-30T03:01:39.468Z,100709.44
2023-08-30T03:03:11.349Z,100707.59
2023-08-30T03:04:43.230Z,100697.91
2023-08-30T03:06:15.893Z,100701.53
2023-08-30T03:07:47.803Z,100701.69
2023-08-30T03:09:19.658Z,100701.84
2023-08-30T03:10:51.483Z,100698.28
2023-08-30T03:12:24.116Z,100691.28
2023-08-30T03:13:55.974Z,100690.31
2023-08-30T03:15:27.876Z,100688.56
2023-08-30T03:16:59.676Z,100689.38
2023-08-30T03:18:32.037Z,100691.00
2023-08-30T03:20:06.734Z,100688.28
2023-08-30T03:21:38.895Z,100690.00
2023-08-30T03:23:12.798Z,100688.31
2023-08-30T03:24:44.570Z,100691.09
2023-08-30T03:26:17.643Z,100685.09
2023-08-30T03:27:49.395Z,100683.31
2023-08-30T03:29:21.461Z,100678.06
2023-08-30T03:30:53.285Z,100677.06
2023-08-30T03:32:25.156Z,100680.50
2023-08-30T03:33:57.166Z,100681.47
2023-08-30T03:35:28.922Z,100678.00
2023-08-30T03:37:01.156Z,100678.00
2023-08-30T03:38:32.940Z,100673.75
2023-08-30T03:40:06.164Z,100670.47
2023-08-30T03:41:38.049Z,100672.19
2023-08-30T03:43:10.403Z,100670.31
2023-08-30T03:44:43.716Z,100673.81
2023-08-30T03:46:15.600Z,100677.19
2023-08-30T03:47:47.476Z,100669.25
2023-08-30T03:49:19.242Z,100665.59
2023-08-30T03:50:51.298Z,100665.66
2023-08-30T03:52:23.086Z,100663.88
2023-08-30T03:53:56.031Z,100658.66
2023-08-30T03:55:27.813Z,100672.88
2023-08-30T03:56:59.637Z,100666.88
2023-08-30T03:58:31.398Z,100666.91
2023-08-30T04:00:05.315Z,100660.88
2023-08-30T04:01:46.463Z,100662.63
2023-08-30T04:03:18.489Z,100657.34
2023-08-30T04:04:51.556Z,100658.25
2023-08-30T04:06:24.363Z,100652.97
2023-08-30T04:07:56.142Z,100655.63
2023-08-30T04:09:27.950Z,100650.34
2023-08-30T04:10:59.739Z,100656.44
2023-08-30T04:12:31.567Z,100646.81
2023-08-30T04:14:03.675Z,100645.09
2023-08-30T04:15:36.334Z,100653.81
2023-08-30T04:17:08.088Z,100651.16
2023-08-30T04:18:40.104Z,100646.00
2023-08-30T04:20:12.024Z,100640.78
2023-08-30T04:21:43.856Z,100641.03
2023-08-30T04:23:15.776Z,100634.00
2023-08-30T04:24:49.977Z,100640.13
2023-08-30T04:26:21.748Z,100637.41
2023-08-30T04:27:53.559Z,100632.06
2023-08-30T04:29:26.196Z,100634.78
2023-08-30T04:30:58.223Z,100625.16
2023-08-30T04:32:30.117Z,100621.56
2023-08-30T04:34:01.964Z,100620.06
2023-08-30T04:35:33.800Z,100620.88
2023-08-30T04:37:05.650Z,100617.38
2023-08-30T04:38:45.381Z,100611.25
2023-08-30T04:40:22.719Z,100605.91
2023-08-30T04:41:54.956Z,100612.97
2023-08-30T04:43:26.865Z,100608.66
2023-08-30T04:45:01.992Z,100605.94
2023-08-30T04:46:33.945Z,100602.44
2023-08-30T04:48:06.268Z,100597.25
2023-08-30T04:49:38.332Z,100602.44
2023-08-30T04:51:10.152Z,100604.25
2023-08-30T04:52:42.088Z,100599.00
2023-08-30T04:54:15.461Z,100602.63
2023-08-30T04:55:47.234Z,100595.81
2023-08-30T04:57:19.571Z,100597.53
2023-08-30T04:58:51.810Z,100601.16
2023-08-30T05:00:24.279Z,100600.28
2023-08-30T05:01:57.829Z,100593.25
2023-08-30T05:03:33.318Z,100581.03
2023-08-30T05:05:05.666Z,100588.91
2023-08-30T05:06:38.292Z,100587.22
2023-08-30T05:08:10.193Z,100579.41
2023-08-30T05:09:42.496Z,100582.00
2023-08-30T05:11:14.992Z,100579.44
2023-08-30T05:12:51.039Z,100572.47
2023-08-30T05:14:23.023Z,100578.53
2023-08-30T05:15:54.825Z,100576.81
2023-08-30T05:17:27.142Z,100577.63
2023-08-30T05:18:59.175Z,100582.00
2023-08-30T05:20:31.338Z,100581.91
2023-08-30T05:22:03.146Z,100575.69
2023-08-30T05:23:34.950Z,100570.47
2023-08-30T05:25:06.895Z,100574.88
2023-08-30T05:26:38.699Z,100572.19
2023-08-30T05:28:10.673Z,100573.97
2023-08-30T05:29:42.702Z,100579.97
2023-08-30T05:31:14.958Z,100575.47
2023-08-30T05:33:24.801Z,100586.78
2023-08-30T05:35:09.351Z,100580.59
2023-08-30T05:37:00.418Z,100582.41
2023-08-30T05:38:58.621Z,100578.91
2023-08-30T05:40:46.070Z,100579.66
2023-08-30T05:42:17.935Z,100575.19
2023-08-30T05:43:49.701Z,100569.94
2023-08-30T05:45:21.526Z,100569.97
2023-08-30T05:46:53.343Z,100565.66
2023-08-30T05:48:25.160Z,100563.88
2023-08-30T05:49:58.144Z,100555.91
2023-08-30T05:51:31.173Z,100556.84
2023-08-30T05:53:04.278Z,100552.41
2023-08-30T05:54:36.167Z,100548.03
2023-08-30T05:56:08.064Z,100543.50
2023-08-30T05:57:39.993Z,100542.69
2023-08-30T05:59:12.821Z,100542.53
2023-08-30T06:00:44.685Z,100548.53
2023-08-30T06:02:16.592Z,100546.75
2023-08-30T06:03:48.448Z,100550.13
2023-08-30T06:05:20.237Z,100543.97
2023-08-30T06:06:51.996Z,100550.09
2023-08-30T06:08:23.835Z,100551.00
2023-08-30T06:09:58.796Z,100546.59
2023-08-30T06:11:31.140Z,100550.03
2023-08-30T06:13:03.831Z,100545.53
2023-08-30T06:14:35.653Z,100535.78
2023-08-30T06:16:07.469Z,100538.31
2023-08-30T06:17:39.342Z,100544.38
2023-08-30T06:19:14.166Z,100547.84
2023-08-30T06:20:46.066Z,100538.00
2023-08-30T06:22:17.853Z,100536.28
2023-08-30T06:23:49.621Z,100533.56
2023-08-30T06:25:21.500Z,100530.78
2023-08-30T06:26:54.567Z,100528.75
2023-08-30T06:28:26.394Z,100521.44
2023-08-30T06:29:58.160Z,100520.50
2023-08-30T06:31:30.617Z,100523.94
2023-08-30T06:33:02.597Z,100520.41
2023-08-30T06:34:34.470Z,100516.91
2023-08-30T06:36:06.544Z,100510.69
2023-08-30T06:37:38.316Z,100512.41
2023-08-30T06:39:10.122Z,100507.88
2023-08-30T06:40:45.328Z,100508.81
2023-08-30T06:42:17.564Z,100513.88
2023-08-30T06:43:50.588Z,100506.88
2023-08-30T06:45:22.528Z,100508.59
2023-08-30T06:46:54.314Z,100507.72
2023-08-30T06:48:26.331Z,100500.69
2023-08-30T06:49:58.412Z,100504.19
2023-08-30T06:51:30.213Z,100501.38
2023-08-30T06:53:02.916Z,100502.16
2023-08-30T06:54:35.749Z,100498.59
2023-08-30T06:56:07.565Z,100503.66
2023-08-30T06:57:39.368Z,100503.72
2023-08-30T06:59:11.269Z,100513.41
2023-08-30T07:00:43.178Z,100506.34
2023-08-30T07:02:15.135Z,100509.91
2023-08-30T07:03:46.985Z,100507.97
2023-08-30T07:05:18.820Z,100502.56
2023-08-30T07:06:50.610Z,100510.50
2023-08-30T07:08:22.583Z,100511.19
2023-08-30T07:09:54.441Z,100512.91
2023-08-30T07:11:34.132Z,100500.63
2023-08-30T07:13:11.618Z,100508.34
2023-08-30T07:14:43.466Z,100497.78
2023-08-30T07:16:15.241Z,100502.75
2023-08-30T07:17:53.855Z,100501.78
2023-08-30T07:19:26.519Z,100504.19
2023-08-30T07:20:58.316Z,100501.28
2023-08-30T07:22:30.203Z,100501.97
2023-08-30T07:24:02.016Z,100501.91
2023-08-30T07:25:38.115Z,100505.41
2023-08-30T07:27:09.909Z,100502.94
2023-08-30T07:28:41.762Z,100505.28
2023-08-30T07:30:13.708Z,100504.44
2023-08-30T07:31:45.502Z,100505.25
2023-08-30T07:33:17.361Z,100504.03
2023-08-30T07:34:49.161Z,100513.44
2023-08-30T07:36:23.988Z,100510.63
2023-08-30T07:37:58.073Z,100515.84
2023-08-30T07:39:29.855Z,100507.78
2023-08-30T07:41:01.817Z,100514.78
2023-08-30T07:42:33.598Z,100514.56
2023-08-30T07:44:05.601Z,100517.31
2023-08-30T07:45:37.375Z,100512.91
2023-08-30T07:47:09.230Z,100519.16
2023-08-30T07:48:41.024Z,100519.28
2023-08-30T07:50:13.480Z,100528.88
2023-08-30T07:51:45.859Z,100529.84
2023-08-30T07:53:17.711Z,100515.56
2023-08-30T07:54:49.506Z,100530.03
2023-08-30T07:56:21.303Z,100532.19
2023-08-30T07:57:53.116Z,100523.53
2023-08-30T07:59:24.936Z,100523.00
2023-08-30T08:00:56.699Z,100524.81
2023-08-30T08:02:28.539Z,100534.66
2023-08-30T08:04:07.245Z,100523.19
2023-08-30T08:05:39.788Z,100526.91
2023-08-30T08:07:11.625Z,100528.69
2023-08-30T08:08:43.437Z,100535.75
2023-08-30T08:10:15.273Z,100532.50
2023-08-30T08:11:47.122Z,100538.84
2023-08-30T08:13:19.207Z,100537.19
2023-08-30T08:14:51.068Z,100539.81
2023-08-30T08:16:22.940Z,100532.06
2023-08-30T08:17:54.829Z,100530.50
2023-08-30T08:19:26.741Z,100535.13
2023-08-30T08:20:58.601Z,100540.44
2023-08-30T08:22:30.417Z,100530.84
2023-08-30T08:24:02.419Z,100528.84
2023-08-30T08:25:34.255Z,100516.69
2023-08-30T08:27:07.417Z,100513.34
2023-08-30T08:28:39.612Z,100514.19
2023-08-30T08:30:12.214Z,100509.97
2023-08-30T08:31:43.997Z,100508.25
2023-08-30T08:33:15.844Z,100510.81
2023-08-30T08:34:47.586Z,100508.31
2023-08-30T08:36:19.423Z,100513.44
2023-08-30T08:37:52.161Z,100493.22
2023-08-30T08:39:23.995Z,100487.84
2023-08-30T08:41:02.126Z,100497.66
2023-08-30T08:42:33.951Z,100487.09
2023-08-30T08:44:06.443Z,100486.13
2023-08-30T08:45:38.242Z,100488.69
2023-08-30T08:47:10.030Z,100477.25
2023-08-30T08:48:42.393Z,100479.56
2023-08-30T08:50:14.239Z,100478.06
2023-08-30T08:51:46.538Z,100480.66
2023-08-30T08:53:18.381Z,100477.19
2023-08-30T08:54:50.259Z,100479.19
2023-08-30T08:56:22.029Z,100490.38
2023-08-30T08:57:55.065Z,100492.16
2023-08-30T08:59:26.831Z,100493.72
2023-08-30T09:00:58.677Z,100501.06
2023-08-30T09:02:30.604Z,100490.69
2023-08-30T09:04:20.794Z,100497.81
2023-08-30T09:05:52.576Z,100494.56
2023-08-30T09:07:25.837Z,100500.66
2023-08-30T09:08:57.636Z,100498.69
2023-08-30T09:10:29.397Z,100500.56
2023-08-30T09:13:32.352Z,100493.75
2023-08-30T09:15:05.601Z,100495.53
2023-08-30T09:16:37.405Z,100497.25
2023-08-30T09:18:18.809Z,100492.94
2023-08-30T09:19:50.642Z,100497.31
2023-08-30T09:21:22.406Z,100492.81
2023-08-30T09:22:54.173Z,100493.50
2023-08-30T09:24:26.156Z,100494.38
2023-08-30T09:25:58.010Z,100489.00
2023-08-30T09:27:33.259Z,100496.00
2023-08-30T09:29:05.446Z,100492.66
2023-08-30T09:30:37.235Z,100489.19
2023-08-30T09:32:09.169Z,100486.31
2023-08-30T09:33:40.942Z,100485.34
2023-08-30T09:35:12.758Z,100480.94
2023-08-30T09:36:44.859Z,100481.88
2023-08-30T09:38:19.860Z,100478.25
2023-08-30T09:39:52.158Z,100476.28
2023-08-30T09:41:23.974Z,100477.97
2023-08-30T09:43:10.787Z,100475.28
2023-08-30T09:44:44.364Z,100483.13
2023-08-30T09:46:16.273Z,100475.13
2023-08-30T09:47:48.730Z,100469.84
2023-08-30T09:49:26.908Z,100478.31
2023-08-30T09:50:59.553Z,100472.16
2023-08-30T09:52:31.376Z,100481.19
2023-08-30T09:54:06.529Z,100471.25
2023-08-30T09:55:39.467Z,100481.16
2023-08-30T09:57:11.667Z,100477.81
2023-08-30T09:58:43.809Z,100478.06
2023-08-30T10:00:15.789Z,100494.38
2023-08-30T10:01:48.311Z,100489.31
2023-08-30T10:03:30.670Z,100486.72
2023-08-30T10:05:03.957Z,100482.56
2023-08-30T10:06:36.313Z,100481.75
2023-08-30T10:08:08.400Z,100482.97
2023-08-30T10:09:52.119Z,100487.56
2023-08-30T10:11:27.222Z,100475.44
2023-08-30T10:13:09.596Z,100482.19
2023-08-30T10:14:42.439Z,100480.44
2023-08-30T10:16:21.991Z,100480.47
2023-08-30T10:17:54.054Z,100477.84
2023-08-30T10:19:26.241Z,100480.47
2023-08-30T10:20:58.112Z,100484.66
2023-08-30T10:22:29.902Z,100470.47
2023-08-30T10:24:05.380Z,100472.38
2023-08-30T10:25:41.140Z,100479.38
2023-08-30T10:27:12.939Z,100479.47
2023-08-30T10:28:44.740Z,100471.47
2023-08-30T10:30:17.079Z,100473.91
2023-08-30T10:31:50.543Z,100473.00
2023-08-30T10:33:27.341Z,100473.78
2023-08-30T10:35:02.106Z,100477.28
2023-08-30T10:36:33.909Z,100470.16
2023-08-30T10:38:05.803Z,100473.78
2023-08-30T10:39:38.446Z,100466.75
2023-08-30T10:41:10.769Z,100469.13
2023-08-30T10:42:42.687Z,100464.53
2023-08-30T10:44:15.196Z,100460.88
2023-08-30T10:45:47.003Z,100467.66
2023-08-30T10:47:27.419Z,100462.50
2023-08-30T10:49:17.743Z,100470.06
2023-08-30T10:50:49.539Z,100474.31
2023-08-30T10:52:21.400Z,100474.09
2023-08-30T10:53:56.794Z,100466.13
2023-08-30T10:55:28.672Z,100466.03
2023-08-30T10:57:02.661Z,100460.59
2023-08-30T10:58:42.232Z,100464.09
2023-08-30T11:00:20.743Z,100463.16
2023-08-30T11:01:53.384Z,100447.78
2023-08-30T11:03:25.619Z,100452.84
2023-08-30T11:04:58.754Z,100454.72
2023-08-30T11:06:30.668Z,100452.03
2023-08-30T11:08:02.447Z,100449.06
2023-08-30T11:09:34.463Z,100451.75
2023-08-30T11:11:06.675Z,100452.63
2023-08-30T11:12:38.564Z,100455.22
2023-08-30T11:14:10.660Z,100453.47
2023-08-30T11:15:42.518Z,100453.16
2023-08-30T11:17:14.334Z,100459.28
2023-08-30T11:18:46.139Z,100460.91
2023-08-30T11:20:19.708Z,100458.47
2023-08-30T11:21:51.470Z,100454.94
2023-08-30T11:23:23.313Z,100455.72
2023-08-30T11:24:55.089Z,100453.78
2023-08-30T11:26:27.151Z,100455.25
2023-08-30T11:28:05.241Z,100463.09
2023-08-30T11:29:37.277Z,100460.03
2023-08-30T11:31:09.121Z,100463.31
2023-08-30T11:32:41.491Z,100457.81
2023-08-30T11:34:13.429Z,100456.25
2023-08-30T11:35:45.264Z,100455.34
2023-08-30T11:37:17.120Z,100457.03
2023-08-30T11:38:49.083Z,100463.22
2023-08-30T11:40:20.857Z,100453.53
2023-08-30T11:41:53.870Z,100452.81
2023-08-30T11:43:26.523Z,100457.22
2023-08-30T11:44:59.276Z,100456.47
2023-08-30T11:46:31.127Z,100451.09
2023-08-30T11:48:03.181Z,100448.41
2023-08-30T11:49:35.513Z,100441.56
2023-08-30T11:51:07.484Z,100440.81
2023-08-30T11:52:39.969Z,100440.72
2023-08-30T11:54:11.733Z,100439.78
2023-08-30T11:55:43.598Z,100433.66
2023-08-30T11:57:15.411Z,100434.47
2023-08-30T11:58:47.301Z,100438.00
2023-08-30T12:00:20.112Z,100440.53
2023-08-30T12:01:54.122Z,100438.66
2023-08-30T12:03:28.105Z,100429.00
2023-08-30T12:05:01.448Z,100424.38
2023-08-30T12:06:33.284Z,100432.00
2023-08-30T12:08:05.280Z,100430.00
2023-08-30T12:09:37.889Z,100428.72
2023-08-30T12:11:22.125Z,100429.13
2023-08-30T12:12:53.976Z,100428.44
2023-08-30T12:14:33.982Z,100432.56
2023-08-30T12:16:06.335Z,100426.03
2023-08-30T12:17:38.586Z,100430.53
2023-08-30T12:19:11.521Z,100422.91
2023-08-30T12:22:56.046Z,100423.97
2023-08-30T12:24:27.839Z,100430.97
2023-08-30T12:26:02.614Z,100433.09
2023-08-30T12:27:34.649Z,100431.50
2023-08-30T12:29:07.537Z,100430.88
2023-08-30T12:30:39.546Z,100433.38
2023-08-30T12:32:11.384Z,100439.47
2023-08-30T12:33:43.254Z,100439.59
2023-08-30T12:35:15.305Z,100439.59
2023-08-30T12:36:47.715Z,100436.25
2023-08-30T12:38:19.526Z,100432.94
2023-08-30T12:39:51.353Z,100428.56
2023-08-30T12:41:24.596Z,100431.31
2023-08-30T12:42:56.411Z,100431.31
2023-08-30T12:44:43.908Z,100425.31
2023-08-30T12:46:15.796Z,100435.69
2023-08-30T12:47:47.646Z,100434.03
2023-08-30T12:49:19.457Z,100438.25
2023-08-30T12:50:51.405Z,100438.91
2023-08-30T12:52:23.423Z,100433.38
2023-08-30T12:53:55.224Z,100431.38
2023-08-30T12:55:27.019Z,100435.56
2023-08-30T12:56:58.878Z,100432.19
2023-08-30T12:58:30.636Z,100437.50
2023-08-30T13:00:02.458Z,100428.56
2023-08-30T13:01:34.330Z,100429.25
2023-08-30T13:03:06.271Z,100418.63
2023-08-30T13:04:38.921Z,100422.00
2023-08-30T13:06:10.773Z,100422.00
2023-08-30T13:07:43.422Z,100426.38
2023-08-30T13:09:15.213Z,100421.13
2023-08-30T13:10:47.005Z,100423.78
2023-08-30T13:12:18.839Z,100423.84
2023-08-30T13:13:50.747Z,100420.97
2023-08-30T13:15:22.607Z,100421.72
2023-08-30T13:16:54.495Z,100425.13
2023-08-30T13:18:26.352Z,100431.31
2023-08-30T13:19:59.368Z,100432.19
2023-08-30T13:21:40.626Z,100414.44
2023-08-30T13:23:13.218Z,100424.31
2023-08-30T13:24:48.803Z,100421.72
2023-08-30T13:26:20.614Z,100428.75
2023-08-30T13:27:53.512Z,100426.03
2023-08-30T13:29:25.304Z,100433.09
2023-08-30T13:30:57.174Z,100426.25
2023-08-30T13:32:29.060Z,100441.97
2023-08-30T13:34:00.967Z,100431.66
2023-08-30T13:35:32.786Z,100428.75
2023-08-30T13:37:05.087Z,100439.44
2023-08-30T13:38:36.893Z,100438.03
2023-08-30T13:40:09.014Z,100432.69
2023-08-30T13:41:40.809Z,100427.47
2023-08-30T13:43:12.860Z,100441.41
2023-08-30T13:44:45.340Z,100436.47
2023-08-30T13:46:17.128Z,100444.28
2023-08-30T13:47:48.935Z,100422.28
2023-08-30T13:49:21.695Z,100421.44
2023-08-30T13:50:53.569Z,100425.91
2023-08-30T13:52:25.416Z,100426.03
2023-08-30T13:53:57.511Z,100420.69
2023-08-30T13:55:29.491Z,100420.56
2023-08-30T13:57:01.316Z,100418.78
2023-08-30T13:58:33.110Z,100422.53
2023-08-30T14:00:11.058Z,100419.22
2023-08-30T14:01:43.001Z,100416.41
2023-08-30T14:03:16.605Z,100419.72
2023-08-30T14:04:48.516Z,100417.88
2023-08-30T14:06:20.349Z,100423.03
2023-08-30T14:07:52.678Z,100423.53
2023-08-30T14:10:04.693Z,100422.69
2023-08-30T14:11:39.200Z,100433.09
2023-08-30T14:13:11.337Z,100434.56
2023-08-30T14:14:43.480Z,100434.50
2023-08-30T14:16:15.347Z,100432.69
2023-08-30T14:17:47.281Z,100434.34
2023-08-30T14:19:19.843Z,100440.22
2023-08-30T14:20:51.685Z,100440.47
2023-08-30T14:22:23.819Z,100436.78
2023-08-30T14:23:55.675Z,100448.28
2023-08-30T14:25:27.601Z,100445.63
2023-08-30T14:26:59.621Z,100443.84
2023-08-30T14:28:31.409Z,100443.50
2023-08-30T14:30:03.391Z,100439.44
2023-08-30T14:31:35.323Z,100442.19
2023-08-30T14:33:07.208Z,100441.16
2023-08-30T14:34:39.058Z,100443.28
2023-08-30T14:36:11.901Z,100436.56
2023-08-30T14:37:43.845Z,100440.41
2023-08-30T14:39:15.822Z,100438.19
2023-08-30T14:41:00.557Z,100430.59
2023-08-30T14:42:33.449Z,100430.13
2023-08-30T14:44:05.433Z,100432.00
2023-08-30T14:45:37.196Z,100434.09
2023-08-30T14:47:09.135Z,100439.41
2023-08-30T14:48:41.177Z,100438.41
2023-08-30T14:50:23.723Z,100431.25
2023-08-30T14:51:55.520Z,100430.84
2023-08-30T14:53:27.785Z,100434.94
2023-08-30T14:55:00.465Z,100433.75
2023-08-30T14:56:32.287Z,100442.69
2023-08-30T14:58:04.084Z,100437.59
2023-08-30T14:59:36.016Z,100435.94
2023-08-30T15:01:07.845Z,100436.09
2023-08-30T15:02:39.615Z,100431.72
2023-08-30T15:04:11.410Z,100429.34
2023-08-30T15:05:43.526Z,100427.97
2023-08-30T15:07:15.360Z,100430.53
2023-08-30T15:08:47.137Z,100430.66
2023-08-30T15:10:19.050Z,100426.19
2023-08-30T15:11:50.829Z,100426.97
2023-08-30T15:13:22.701Z,100437.16
2023-08-30T15:14:55.264Z,100434.75
2023-08-30T15:16:27.083Z,100439.63
2023-08-30T15:17:59.019Z,100438.31
2023-08-30T15:19:30.949Z,100436.94
2023-08-30T15:21:03.075Z,100434.56
2023-08-30T15:22:35.191Z,100432.28
2023-08-30T15:24:07.191Z,100436.59
2023-08-30T15:25:40.663Z,100443.25
2023-08-30T15:27:12.982Z,100441.91
2023-08-30T15:28:47.698Z,100433.59
2023-08-30T15:30:19.907Z,100435.72
2023-08-30T15:31:54.376Z,100428.63
2023-08-30T15:33:26.392Z,100446.31
2023-08-30T15:34:58.264Z,100438.28
2023-08-30T15:36:30.949Z,100448.34
2023-08-30T15:38:02.775Z,100439.81
2023-08-30T15:39:34.552Z,100455.09
2023-08-30T15:41:12.652Z,100459.63
2023-08-30T15:42:44.479Z,100451.34
2023-08-30T15:44:16.637Z,100456.78
2023-08-30T15:45:48.730Z,100456.00
2023-08-30T15:47:20.542Z,100455.84
2023-08-30T15:48:52.312Z,100456.63
2023-08-30T15:50:24.156Z,100453.75
2023-08-30T15:51:56.002Z,100455.19
2023-08-30T15:53:27.941Z,100461.94
2023-08-30T15:54:59.851Z,100473.13
2023-08-30T15:56:31.648Z,100468.13
2023-08-30T15:58:03.558Z,100467.72
2023-08-30T15:59:35.415Z,100467.22
2023-08-30T16:01:07.302Z,100473.53
2023-08-30T16:02:39.296Z,100465.28
2023-08-30T16:04:11.354Z,100470.66
2023-08-30T16:05:43.754Z,100468.66
2023-08-30T16:07:15.623Z,100477.00
2023-08-30T16:08:47.510Z,100472.97
2023-08-30T16:10:19.420Z,100474.41
2023-08-30T16:11:51.349Z,100484.06
2023-08-30T16:13:23.244Z,100475.56
2023-08-30T16:14:55.067Z,100476.13
2023-08-30T16:16:26.850Z,100478.84
2023-08-30T16:17:58.730Z,100483.28
2023-08-30T16:19:31.583Z,100479.13
2023-08-30T16:21:03.829Z,100481.91
2023-08-30T16:22:35.798Z,100481.75
2023-08-30T16:24:07.918Z,100485.69
2023-08-30T16:25:39.680Z,100482.97
2023-08-30T16:27:11.640Z,100475.09
2023-08-30T16:28:43.574Z,100481.19
2023-08-30T16:30:15.486Z,100485.78
2023-08-30T16:31:47.395Z,100479.09
2023-08-30T16:33:20.590Z,100479.81
2023-08-30T16:34:52.484Z,100484.25
2023-08-30T16:36:24.316Z,100483.41
2023-08-30T16:37:56.175Z,100480.75
2023-08-30T16:39:28.167Z,100483.47
2023-08-30T16:41:04.975Z,100483.25
2023-08-30T16:42:36.896Z,100484.97
2023-08-30T16:44:08.706Z,100490.63
2023-08-30T16:45:40.566Z,100488.97
2023-08-30T16:47:12.335Z,100487.91
2023-08-30T16:48:44.176Z,100495.72
2023-08-30T16:50:17.797Z,100488.41
2023-08-30T16:51:49.732Z,100491.13
2023-08-30T16:53:21.622Z,100491.78
2023-08-30T16:54:53.374Z,100501.31
2023-08-30T16:56:25.305Z,100500.22
2023-08-30T16:57:58.013Z,100493.22
2023-08-30T16:59:30.052Z,100502.50
2023-08-30T17:01:02.328Z,100510.88
2023-08-30T17:02:35.875Z,100511.28
2023-08-30T17:04:07.815Z,100515.03
2023-08-30T17:05:41.049Z,100517.19
2023-08-30T17:07:12.928Z,100505.88
2023-08-30T17:08:44.720Z,100514.59
2023-08-30T17:10:16.731Z,100517.72
2023-08-30T17:11:48.489Z,100525.00
2023-08-30T17:13:20.303Z,100523.53
2023-08-30T17:14:52.210Z,100527.38
2023-08-30T17:16:24.768Z,100525.06
2023-08-30T17:17:56.791Z,100530.44
2023-08-30T17:19:28.826Z,100530.69
2023-08-30T17:21:00.683Z,100530.81
2023-08-30T17:22:32.941Z,100527.50
2023-08-30T17:24:04.916Z,100529.09
2023-08-30T17:25:36.766Z,100530.75
2023-08-30T17:27:10.318Z,100537.75
2023-08-30T17:28:42.487Z,100540.47
2023-08-30T17:30:15.046Z,100544.97
2023-08-30T17:31:47.227Z,100545.81
2023-08-30T17:33:19.037Z,100536.16
2023-08-30T17:34:50.865Z,100548.84
2023-08-30T17:36:22.696Z,100544.47
2023-08-30T17:37:54.539Z,100549.03
2023-08-30T17:39:27.076Z,100551.75
2023-08-30T17:40:59.158Z,100548.41
2023-08-30T17:42:31.125Z,100555.44
2023-08-30T17:44:03.241Z,100556.28